Nearby METAR Reports

 

ENCN - Kristiansand/Kje, Norway
Distance from station: N 17km
Ultima actualizare: 18/05/2022 04:50
Acoperit cu nori
Acoperit cu nori
 Vânt dela NE
Vântul: NE 17 km/h
Temperatura: 7°C
Wind Chill: 4°C
Punct de rouă: 0°C
Umiditate: 61%
Barometru: 1024 hPa
Clouds: Acoperit cu nori
Visibility: 10 km
Cloud details: In mare parte înorat 4572 m
Acoperit cu nori 5182 m
2022/05/18 02:50 ENCN 180250Z AUTO 05009KT 9999 BKN150/// OVC170/// 07/M00 Q1024
EKSN - Sindal Airport, Denmark
Distance from station: ESE 145km
Ultima actualizare: 30/12/2021 14:50
NOT Current
Mist, In mare parte înorat
Mist, In mare parte înorat
 Vânt dela SV
Vântul: SV 26 km/h
Temperatura: 7°C
Wind Chill: 3°C
Punct de rouă: 7°C
Umiditate: 100%
Barometru: 999 hPa
Sumar: Mist
Clouds: In mare parte înorat
Visibility: 5 km
Cloud details: Parțial înorat 183 m
In mare parte înorat 244 m
2021/12/30 13:50 EKSN 301350Z 23014KT 4500 BR SCT006 BKN008 07/07 Q0999
 
EKYT - Alborg, Denmark
Distance from station: SE 153km
Ultima actualizare: 18/05/2022 04:50
In mare parte înorat
In mare parte înorat
 Vânt dela SE
Vântul: SE 17 km/h
Temperatura: 10°C
Wind Chill: 8°C
Punct de rouă: 4°C
Umiditate: 67%
Barometru: 1024 hPa
Clouds: In mare parte înorat
Visibility: 10 km
Cloud details: Parțial înorat 5486 m
In mare parte înorat 6096 m
2022/05/18 02:50 EKYT 180250Z AUTO 14009KT 9999 SCT180/// BKN200/// 10/04 Q1024
ENSN - Skien/Geiterygge, Norway
Distance from station: NE 153km
Ultima actualizare: 09/11/2015 09:50
NOT Current
Senin
Senin
 Vânt dela SSV
Vântul: SSV 19 km/h, Vânt în rafale: 41 km/h
Temperatura: 7°C
Wind Chill: 4°C
Punct de rouă: 3°C
Umiditate: 76%
Barometru: 1000 hPa
Sumar: Senin
Visibility: greater than 10 km
2015/11/09 08:50 ENSN 090850Z 20010G22KT 150V240 CAVOK 07/03 Q1000
 
ENZV - Stavanger/Sola(A, Norway
Distance from station: NV 166km
Ultima actualizare: 18/05/2022 04:50
Senin
Senin
 Vânt dela SE
Vântul: SE 19 km/h
Temperatura: 14°C
Punct de rouă: 3°C
Umiditate: 48%
Barometru: 1019 hPa
Sumar: Senin
Visibility: greater than 10 km
2022/05/18 02:50 ENZV 180250Z 13010KT CAVOK 14/03 Q1019
ENNO - Notodden, Norway
Distance from station: NNE 182km
Ultima actualizare: 16/05/2022 18:50
NOT Current
Senin
Senin
 Vânt dela ESE
Vântul: ESE 17 km/h
Temperatura: 19°C
Punct de rouă: 3°C
Umiditate: 35%
Barometru: 1020 hPa
Sumar: Senin
Visibility: greater than 10 km
2022/05/16 16:50 ENNO 161650Z 12009KT CAVOK 19/03 Q1020
 
ENTO - Torp (civ/Nor-Af, Norway
Distance from station: NE 183km
Ultima actualizare: 18/05/2022 05:20
Parțial înorat
Parțial înorat
 Vânt dela calm
Vântul: Calm
Temperatura: 6°C
Punct de rouă: -1°C
Umiditate: 61%
Barometru: 1025 hPa
Clouds: Parțial înorat
Visibility: 10 km
Cloud details: Parțial înorat 5791 m
2022/05/18 03:20 ENTO 180320Z AUTO 00000KT 9999 SCT190/// 06/M01 Q1025
EKKA - Karup (dan-Afb), Denmark
Distance from station: SSE 209km
Ultima actualizare: 18/05/2022 04:50
In mare parte înorat
In mare parte înorat
 Vânt dela SE
Vântul: SE 19 km/h
Temperatura: 11°C
Punct de rouă: 3°C
Umiditate: 58%
Barometru: 1023 hPa
Clouds: In mare parte înorat
Visibility: 10 km
Cloud details: In mare parte înorat 4877 m
2022/05/18 02:50 EKKA 180250Z AUTO 13010KT 100V160 9999 BKN160/// 11/03 Q1023
 
ENHD - Haugesund/Karmoy, Norway
Distance from station: NV 216km
Ultima actualizare: 18/05/2022 05:20
In mare parte înorat
In mare parte înorat
 Vânt dela SE
Vântul: SE 33 km/h
Temperatura: 14°C
Punct de rouă: 3°C
Umiditate: 48%
Barometru: 1018 hPa
Clouds: In mare parte înorat
Visibility: 10 km
Cloud details: In mare parte înorat 1798 m
2022/05/18 03:20 ENHD 180320Z AUTO 13018KT 9999 BKN059/// 14/03 Q1018
ENRY - Rygge (nor-Afb), Norway
Distance from station: NE 216km
Ultima actualizare: 18/05/2022 05:20
Few Clouds
Few Clouds
 Vânt dela ESE
Vântul: ESE 6 km/h
Temperatura: 6°C
Punct de rouă: 1°C
Umiditate: 71%
Clouds: Few Clouds
Visibility: 10 km
Cloud details: Few Clouds 6096 m
2022/05/18 03:20 ENRY 180320Z AUTO 12003KT 9999NDV FEW200/// 06/01
 
ESGP - Goteborg/Save (a, Sweden
Distance from station: E 230km
Ultima actualizare: 18/05/2022 04:50
Senin
Senin
 Vânt dela SSE
Vântul: SSE 13 km/h
Temperatura: 9°C
Wind Chill: 7°C
Punct de rouă: 3°C
Umiditate: 66%
Barometru: 1026 hPa
Clouds: Senin
Visibility: 10 km
2022/05/18 02:50 ESGP 180250Z AUTO 16007KT 9999 NCD 09/03 Q1026
EKVJ - Stauning Airport, Denmark
Distance from station: S 233km
Ultima actualizare: 17/05/2022 15:50
NOT Current
Senin
Senin
 Vânt dela ESE
Vântul: ESE 28 km/h
Temperatura: 21°C
Punct de rouă: 13°C
Umiditate: 60%
Barometru: 1021 hPa
Sumar: Senin
Visibility: greater than 10 km
2022/05/17 13:50 EKVJ 171350Z 11015KT CAVOK 21/13 Q1021
 
ENSO - Stord/Soerstokke, Norway
Distance from station: NV 246km
Ultima actualizare: 17/05/2022 14:20
NOT Current
Senin
Senin
 Vânt dela S
Vântul: S 9 km/h
Temperatura: 21°C
Punct de rouă: 4°C
Umiditate: 33%
Barometru: 1023 hPa
Sumar: Senin
Visibility: greater than 10 km
2022/05/17 12:20 ENSO 171220Z 19005KT CAVOK 21/04 Q1023
EKAH - Tirstrup (civ/Mi, Denmark
Distance from station: SE 252km
Ultima actualizare: 18/05/2022 04:50
In mare parte înorat
In mare parte înorat
 Vânt dela SE
Vântul: SE 13 km/h
Temperatura: 11°C
Punct de rouă: 4°C
Umiditate: 62%
Barometru: 1026 hPa
Clouds: In mare parte înorat
Visibility: 10 km
Cloud details: In mare parte înorat 4572 m
2022/05/18 02:50 EKAH 180250Z AUTO 13007KT 9999 BKN150/// 11/04 Q1026
 
ESGT - Trollhattan (pvt, Sweden
Distance from station: E 255km
Ultima actualizare: 18/05/2022 04:50
Senin
Senin
 Vânt dela SSE
Vântul: SSE 13 km/h
Temperatura: 2°C
Wind Chill: -1°C
Punct de rouă: -1°C
Umiditate: 81%
Barometru: 1026 hPa
Clouds: Senin
Visibility: 10 km
2022/05/18 02:50 ESGT 180250Z AUTO 16007KT 9999 NCD 02/M01 Q1026
ESGG - Goteborg/Landvet, Sweden
Distance from station: E 257km
Ultima actualizare: 18/05/2022 04:50
Senin
Senin
 Vânt dela SSE
Vântul: SSE 13 km/h
Temperatura: 5°C
Wind Chill: 2°C
Punct de rouă: 0°C
Umiditate: 70%
Barometru: 1026 hPa
Sumar: Senin
Visibility: greater than 10 km
2022/05/18 02:50 ESGG 180250Z 16007KT CAVOK 05/M00 Q1026
 
EKBI - Billund Airport, Denmark
Distance from station: SSE 269km
Ultima actualizare: 18/05/2022 04:50
Acoperit cu nori
Acoperit cu nori
 Vânt dela ESE
Vântul: ESE 15 km/h
Temperatura: 11°C
Punct de rouă: 4°C
Umiditate: 62%
Barometru: 1023 hPa
Clouds: Acoperit cu nori
Visibility: 10 km
Cloud details: Acoperit cu nori 5182 m
2022/05/18 02:50 EKBI 180250Z AUTO 12008KT 090V150 9999 OVC170/// 11/04 Q1023
EKHN - Horns Rev B Heli, Denmark
Distance from station: S 274km
Ultima actualizare: 09/08/2016 14:20
NOT Current
Few Clouds
Few Clouds
 Vânt dela VNV
Vântul: VNV 50 km/h, Vânt în rafale: 72 km/h
Temperatura: 14°C
Punct de rouă: 10°C
Umiditate: 77%
Barometru: 1018 hPa
Clouds: Few Clouds
Visibility: 10 km
Cloud details: Few Clouds 1158 m
Few Clouds 2438 m
2016/08/09 12:20 EKHN 091220Z AUTO 29027G39KT 270V340 9999NDV FEW038/// FEW080/// 14/10 Q1018
 
ESIB - Satenas (swe-Afb, Sweden
Distance from station: E 277km
Ultima actualizare: 18/05/2022 04:50
Senin
Senin
 Vânt dela S
Vântul: S 9 km/h
Temperatura: 4°C
Wind Chill: 2°C
Punct de rouă: 0°C
Umiditate: 75%
Barometru: 1026 hPa
Clouds: Senin
Visibility: 10 km
2022/05/18 02:50 ESIB 180250Z AUTO 17005KT 9999 NCD 04/00 Q1026
EKHR - Horns Rev B Heli, Denmark
Distance from station: S 282km
Ultima actualizare: 04/10/2016 06:20
NOT Current
Senin
Senin
 Vânt dela E
Vântul: E 4 km/h
Temperatura: 11°C
Punct de rouă: -49°C
Umiditate: 0%
Barometru: 1038 hPa
Clouds: Senin
Visibility: 10 km
2016/10/04 04:20 EKHR 040420Z AUTO 08002KT 9999NDV NCD 11/M49 Q1038